Terminal Aerodrome Forecast
Issued by NWS Raleigh/Durham, NC

Home | Current Version | Previous Version | Text Only | Print | Product List | Glossary On
Versions: 1 2 3 4 5 6 7 8 9 10 11 12 13 14 15 16
000
FTUS42 KRAH 272337
TAFRDU
TAF
KRDU 272337Z 2800/2824 18006KT P6SM SCT050 BKN150
     FM280500 20004KT P6SM SCT015 BKN150
      TEMPO 2809/2813 2SM -SHRA BKN015
     FM281400 VRB06KT P6SM VCTS OVC035CB PROB30 2815/2820 VRB15G30KT
      2SM TSRA BKN025CB=

USA.gov is the U.S. government's official web portal to all federal, state and local government web resources and services.